Time;durP1;ratioP1;P1;durP2;ratioP2;P2;SDS_P1;SDS_P2;PMS_P1;PMS_P2;Temp;Humidity;BMP_temperature;BMP_pressure;BME280_temperature;BME280_humidity;BME280_pressure;Samples;Min_cycle;Max_cycle;Signal;HPM_P1;HPM_P2
2023/04/24 00:00:25;;;;;;;1.43;1.33;;;;;;;;;;5074557;28;20494;-76
2023/04/24 00:02:56;;;;;;;1.90;1.50;;;;;;;;;;5074705;28;20592;-76
2023/04/24 00:05:30;;;;;;;1.20;1.20;;;;;;;;;;5074696;28;20452;-76
2023/04/24 00:07:59;;;;;;;1.00;1.00;;;;;;;;;;5074581;28;21003;-76
2023/04/24 00:10:32;;;;;;;2.97;1.10;;;;;;;;;;5074947;28;20440;-76
2023/04/24 00:13:24;;;;;;;1.33;1.23;;;;;;;;;;5074987;28;20998;-76
2023/04/24 00:16:11;;;;;;;1.23;1.20;;;;;;;;;;5074903;28;20956;-77
2023/04/24 00:18:48;;;;;;;1.20;1.10;;;;;;;;;;5080193;28;20547;-75
2023/04/24 00:21:27;;;;;;;1.33;1.10;;;;;;;;;;5095292;28;20439;-76
2023/04/24 00:23:58;;;;;;;1.40;1.30;;;;;;;;;;5095787;28;20463;-75
2023/04/24 00:26:35;;;;;;;2.50;1.17;;;;;;;;;;5095162;28;20472;-75
2023/04/24 00:29:06;;;;;;;2.90;1.10;;;;;;;;;;5095074;28;20460;-76
2023/04/24 00:31:37;;;;;;;1.53;1.30;;;;;;;;;;5095076;28;21009;-77
2023/04/24 00:34:12;;;;;;;1.47;1.23;;;;;;;;;;5094557;28;20818;-76
2023/04/24 00:36:42;;;;;;;1.87;1.00;;;;;;;;;;5092076;28;20872;-77
2023/04/24 00:39:11;;;;;;;1.13;1.13;;;;;;;;;;5095276;28;20455;-76
2023/04/24 00:41:41;;;;;;;2.23;0.97;;;;;;;;;;5097189;28;20467;-76
2023/04/24 00:44:12;;;;;;;0.97;0.97;;;;;;;;;;5098499;28;20448;-76
2023/04/24 00:46:43;;;;;;;1.27;1.27;;;;;;;;;;5100719;28;21010;-76
2023/04/24 00:49:11;;;;;;;1.93;1.10;;;;;;;;;;5102133;28;20447;-77
2023/04/24 00:51:40;;;;;;;0.80;0.80;;;;;;;;;;5102260;28;20448;-78
2023/04/24 00:54:11;;;;;;;1.30;1.20;;;;;;;;;;5100982;28;20452;-74
2023/04/24 00:56:44;;;;;;;1.27;1.13;;;;;;;;;;5099794;28;20559;-77
2023/04/24 00:59:13;;;;;;;1.77;1.10;;;;;;;;;;5099324;28;21002;-75
2023/04/24 01:01:43;;;;;;;1.00;0.90;;;;;;;;;;5099846;28;20964;-75
2023/04/24 01:04:20;;;;;;;1.20;1.20;;;;;;;;;;5101141;28;20448;-77
2023/04/24 01:06:52;;;;;;;1.20;1.10;;;;;;;;;;5100503;28;20510;-75
2023/04/24 01:09:26;;;;;;;1.27;1.20;;;;;;;;;;5104111;28;20471;-76
2023/04/24 01:12:01;;;;;;;3.30;1.30;;;;;;;;;;5107542;28;20456;-77
2023/04/24 01:14:34;;;;;;;1.33;1.00;;;;;;;;;;5107111;28;20946;-76
2023/04/24 01:17:15;;;;;;;1.80;1.20;;;;;;;;;;5107564;28;20471;-77
2023/04/24 01:19:53;;;;;;;1.50;1.00;;;;;;;;;;5088054;28;20437;-75
2023/04/24 01:22:28;;;;;;;1.03;1.03;;;;;;;;;;5088539;28;20443;-76
2023/04/24 01:24:58;;;;;;;1.00;1.00;;;;;;;;;;5087408;28;20459;-77
2023/04/24 01:27:28;;;;;;;1.37;1.27;;;;;;;;;;5087492;28;20511;-77
2023/04/24 01:30:04;;;;;;;1.80;1.43;;;;;;;;;;5086750;28;20449;-76
2023/04/24 01:32:35;;;;;;;1.00;1.00;;;;;;;;;;5086969;28;20892;-78
2023/04/24 01:35:08;;;;;;;1.33;1.10;;;;;;;;;;5083960;28;20540;-76
2023/04/24 01:37:38;;;;;;;1.97;1.20;;;;;;;;;;5078096;28;21002;-77
2023/04/24 01:40:09;;;;;;;1.10;1.10;;;;;;;;;;5076160;28;20432;-75
2023/04/24 01:42:38;;;;;;;1.00;1.00;;;;;;;;;;5075711;28;20432;-76
2023/04/24 01:45:18;;;;;;;1.07;1.07;;;;;;;;;;5075280;28;20963;-76
2023/04/24 01:47:49;;;;;;;1.23;1.20;;;;;;;;;;5074113;28;20480;-76
2023/04/24 01:50:22;;;;;;;1.50;1.40;;;;;;;;;;5072869;28;20444;-76
2023/04/24 01:52:55;;;;;;;1.40;1.20;;;;;;;;;;5071215;28;20833;-76
2023/04/24 01:55:25;;;;;;;1.63;1.30;;;;;;;;;;5074455;28;20928;-76
2023/04/24 01:57:55;;;;;;;3.03;1.60;;;;;;;;;;5073044;28;20472;-78
2023/04/24 02:00:25;;;;;;;1.53;1.27;;;;;;;;;;5071502;28;20453;-75
2023/04/24 02:02:57;;;;;;;1.47;1.37;;;;;;;;;;5071836;28;20453;-76
2023/04/24 02:05:27;;;;;;;1.40;1.30;;;;;;;;;;5071628;28;21182;-75
2023/04/24 02:08:00;;;;;;;0.93;0.93;;;;;;;;;;5071606;28;21019;-77
2023/04/24 02:10:28;;;;;;;1.33;1.23;;;;;;;;;;5079909;28;20582;-76
2023/04/24 02:13:02;;;;;;;2.20;1.57;;;;;;;;;;5093434;28;20470;-76
2023/04/24 02:15:31;;;;;;;1.20;1.10;;;;;;;;;;5097628;28;20440;-74
2023/04/24 02:18:02;;;;;;;1.20;1.10;;;;;;;;;;5093621;28;20468;-76
2023/04/24 02:20:37;;;;;;;1.00;1.00;;;;;;;;;;5083353;28;20459;-76
2023/04/24 02:23:18;;;;;;;1.27;1.13;;;;;;;;;;5083876;28;20463;-76
2023/04/24 02:25:48;;;;;;;2.30;1.43;;;;;;;;;;5081309;28;20458;-75
2023/04/24 02:28:19;;;;;;;1.80;1.10;;;;;;;;;;5081463;28;20480;-76
2023/04/24 02:30:53;;;;;;;2.10;1.57;;;;;;;;;;5085062;28;20474;-75
2023/04/24 02:33:21;;;;;;;1.47;1.10;;;;;;;;;;5084167;28;20425;-75
2023/04/24 02:35:53;;;;;;;1.57;1.30;;;;;;;;;;5082033;28;20452;-75
2023/04/24 02:38:22;;;;;;;1.07;1.03;;;;;;;;;;5084298;28;20468;-75
2023/04/24 02:40:55;;;;;;;2.60;1.37;;;;;;;;;;5083446;28;20451;-75
2023/04/24 02:43:39;;;;;;;2.07;1.20;;;;;;;;;;5083355;28;20445;-75
2023/04/24 02:46:08;;;;;;;1.00;1.00;;;;;;;;;;5083988;28;20444;-75
2023/04/24 02:48:43;;;;;;;2.43;1.27;;;;;;;;;;5083809;28;20490;-75
2023/04/24 02:51:12;;;;;;;1.03;1.03;;;;;;;;;;5083895;28;20882;-76
2023/04/24 02:53:43;;;;;;;1.13;1.03;;;;;;;;;;5086830;28;20449;-75
2023/04/24 02:56:16;;;;;;;1.37;1.20;;;;;;;;;;5092811;28;20945;-77
2023/04/24 02:58:50;;;;;;;1.40;1.30;;;;;;;;;;5093322;28;20476;-76
2023/04/24 03:01:29;;;;;;;2.33;1.00;;;;;;;;;;5093864;28;20412;-76
2023/04/24 03:03:59;;;;;;;1.40;1.30;;;;;;;;;;5093298;28;20456;-76
2023/04/24 03:06:28;;;;;;;1.70;1.60;;;;;;;;;;5089620;28;20483;-76
2023/04/24 03:09:00;;;;;;;1.27;1.20;;;;;;;;;;5090734;28;20460;-75
2023/04/24 03:11:33;;;;;;;1.40;1.30;;;;;;;;;;5095638;28;20450;-76
2023/04/24 03:14:05;;;;;;;1.30;1.20;;;;;;;;;;5104687;28;20518;-76
2023/04/24 03:16:36;;;;;;;1.50;1.40;;;;;;;;;;5103274;28;20444;-77
2023/04/24 03:19:07;;;;;;;1.30;1.20;;;;;;;;;;5090012;28;20452;-76
2023/04/24 03:22:01;;;;;;;1.20;1.20;;;;;;;;;;5084006;28;20460;-76
2023/04/24 03:24:43;;;;;;;1.10;1.10;;;;;;;;;;5059735;28;20518;-76
2023/04/24 03:27:17;;;;;;;1.33;1.00;;;;;;;;;;5078906;28;20476;-76
2023/04/24 03:29:47;;;;;;;1.67;1.57;;;;;;;;;;5077946;28;20456;-77
2023/04/24 03:32:15;;;;;;;1.33;1.20;;;;;;;;;;5077337;28;20541;-78
2023/04/24 03:34:43;;;;;;;1.53;1.17;;;;;;;;;;5076095;28;20531;-77
2023/04/24 03:37:13;;;;;;;1.13;1.13;;;;;;;;;;5075753;28;21036;-77
2023/04/24 03:39:43;;;;;;;2.07;1.63;;;;;;;;;;5075910;28;20491;-77
2023/04/24 03:42:12;;;;;;;1.40;1.30;;;;;;;;;;5076533;28;20502;-78
2023/04/24 03:44:44;;;;;;;1.50;1.40;;;;;;;;;;5076742;28;20453;-76
2023/04/24 03:47:15;;;;;;;3.83;1.43;;;;;;;;;;5076803;28;20480;-76
2023/04/24 03:49:43;;;;;;;1.00;1.00;;;;;;;;;;5075714;28;20453;-78
2023/04/24 03:52:11;;;;;;;1.60;1.50;;;;;;;;;;5078577;28;20452;-76
2023/04/24 03:54:39;;;;;;;1.57;1.47;;;;;;;;;;5077025;28;20482;-77
2023/04/24 03:57:12;;;;;;;1.33;1.27;;;;;;;;;;5076470;28;20479;-76
2023/04/24 03:59:47;;;;;;;1.20;1.17;;;;;;;;;;5075733;28;21209;-76
2023/04/24 04:02:25;;;;;;;1.50;1.40;;;;;;;;;;5076266;28;20451;-77
2023/04/24 04:05:06;;;;;;;2.37;1.40;;;;;;;;;;5075851;28;20472;-76
2023/04/24 04:07:34;;;;;;;1.30;1.20;;;;;;;;;;5074492;28;20519;-77
2023/04/24 04:10:03;;;;;;;2.20;1.27;;;;;;;;;;5073728;28;20448;-76
2023/04/24 04:12:34;;;;;;;1.63;1.50;;;;;;;;;;5073758;28;21020;-79
2023/04/24 04:15:02;;;;;;;1.27;1.17;;;;;;;;;;5075070;28;20464;-77
2023/04/24 04:17:53;;;;;;;2.00;1.80;;;;;;;;;;5074262;28;20602;-77
2023/04/24 04:20:30;;;;;;;1.57;1.33;;;;;;;;;;5073651;28;20565;-77
2023/04/24 04:23:04;;;;;;;1.20;1.20;;;;;;;;;;5092627;28;20467;-76
2023/04/24 04:25:40;;;;;;;2.00;1.30;;;;;;;;;;5095292;28;20574;-78
2023/04/24 04:28:15;;;;;;;1.47;1.20;;;;;;;;;;5096846;28;21125;-78
2023/04/24 04:30:55;;;;;;;1.30;1.20;;;;;;;;;;5095377;28;20447;-76
2023/04/24 04:33:35;;;;;;;1.20;1.20;;;;;;;;;;5094180;28;20474;-76
2023/04/24 04:36:13;;;;;;;1.20;1.20;;;;;;;;;;5094119;28;20927;-78
2023/04/24 04:38:46;;;;;;;1.30;1.30;;;;;;;;;;5094665;28;20542;-77
2023/04/24 04:41:16;;;;;;;1.60;1.50;;;;;;;;;;5095553;28;21018;-80
2023/04/24 04:44:00;;;;;;;3.83;1.33;;;;;;;;;;5096259;28;20432;-77
2023/04/24 04:46:32;;;;;;;1.97;1.47;;;;;;;;;;5092916;28;20462;-76
2023/04/24 04:49:08;;;;;;;1.63;1.53;;;;;;;;;;5095795;28;20471;-77
2023/04/24 04:51:36;;;;;;;1.40;1.40;;;;;;;;;;5093226;28;20462;-76
2023/04/24 04:54:06;;;;;;;1.87;1.43;;;;;;;;;;5092845;28;20489;-78
2023/04/24 04:56:34;;;;;;;1.40;1.30;;;;;;;;;;5093618;28;20443;-77
2023/04/24 04:59:06;;;;;;;1.50;1.50;;;;;;;;;;5093903;28;20507;-78
2023/04/24 05:01:37;;;;;;;1.73;1.57;;;;;;;;;;5096008;28;20448;-78
2023/04/24 05:04:05;;;;;;;1.70;1.60;;;;;;;;;;5099038;28;20462;-78
2023/04/24 05:06:42;;;;;;;1.93;1.73;;;;;;;;;;5106217;28;20448;-77
2023/04/24 05:09:10;;;;;;;2.00;1.40;;;;;;;;;;5109082;28;20562;-79
2023/04/24 05:11:37;;;;;;;2.43;2.23;;;;;;;;;;5108757;28;20522;-78
2023/04/24 05:14:20;;;;;;;;;;;;;;;;;;;;;
2023/04/24 05:16:48;;;;;;;1.77;1.40;;;;;;;;;;5107852;28;20526;-77
2023/04/24 05:19:15;;;;;;;1.60;1.50;;;;;;;;;;5093021;28;20433;-77
2023/04/24 05:21:43;;;;;;;1.53;1.40;;;;;;;;;;5087757;28;20976;-78
2023/04/24 05:24:11;;;;;;;1.90;1.70;;;;;;;;;;5088048;28;20432;-76
2023/04/24 05:26:47;;;;;;;2.50;1.73;;;;;;;;;;5087955;28;20421;-76
2023/04/24 05:29:18;;;;;;;1.80;1.70;;;;;;;;;;5075213;28;20480;-77
2023/04/24 05:31:52;;;;;;;1.70;1.60;;;;;;;;;;5072907;28;20967;-77
2023/04/24 05:34:22;;;;;;;1.90;1.80;;;;;;;;;;5072067;28;20449;-77
2023/04/24 05:36:55;;;;;;;2.00;1.90;;;;;;;;;;5073157;28;20473;-75
2023/04/24 05:39:24;;;;;;;1.93;1.87;;;;;;;;;;5077109;28;20453;-75
2023/04/24 05:41:52;;;;;;;2.20;2.00;;;;;;;;;;5074059;28;20445;-78
2023/04/24 05:44:25;;;;;;;2.20;2.10;;;;;;;;;;5076239;28;20432;-77
2023/04/24 05:47:01;;;;;;;2.40;2.20;;;;;;;;;;5076170;28;20555;-77
2023/04/24 05:49:29;;;;;;;2.60;2.40;;;;;;;;;;5076061;28;20542;-75
2023/04/24 05:52:02;;;;;;;2.60;1.80;;;;;;;;;;5076286;28;20945;-78
2023/04/24 05:54:34;;;;;;;2.30;2.20;;;;;;;;;;5076902;28;20820;-76
2023/04/24 05:57:07;;;;;;;2.20;2.10;;;;;;;;;;5074835;28;20460;-77
2023/04/24 05:59:40;;;;;;;2.03;1.93;;;;;;;;;;5077182;28;20452;-77
2023/04/24 06:02:09;;;;;;;3.20;2.20;;;;;;;;;;5075904;28;20459;-77
2023/04/24 06:04:37;;;;;;;2.20;2.10;;;;;;;;;;5073383;28;20971;-77
2023/04/24 06:07:06;;;;;;;2.37;2.27;;;;;;;;;;5072724;28;20908;-76
2023/04/24 06:09:37;;;;;;;2.60;2.40;;;;;;;;;;5074842;28;20480;-77
2023/04/24 06:12:11;;;;;;;3.27;2.20;;;;;;;;;;5074848;28;21155;-76
2023/04/24 06:14:47;;;;;;;2.07;1.97;;;;;;;;;;5075272;28;20453;-78
2023/04/24 06:17:18;;;;;;;3.70;2.47;;;;;;;;;;5075452;28;21310;-77
2023/04/24 06:19:46;;;;;;;2.37;2.23;;;;;;;;;;5078404;28;20900;-78
2023/04/24 06:22:15;;;;;;;2.43;2.33;;;;;;;;;;5077870;28;20451;-77
2023/04/24 06:24:43;;;;;;;2.80;2.60;;;;;;;;;;5077411;28;20442;-77
2023/04/24 06:27:13;;;;;;;3.20;2.90;;;;;;;;;;5076674;28;20488;-77
2023/04/24 06:29:56;;;;;;;3.20;3.00;;;;;;;;;;5076683;28;20483;-77
2023/04/24 06:32:26;;;;;;;2.43;2.33;;;;;;;;;;5076440;28;20453;-78
2023/04/24 06:34:54;;;;;;;2.83;2.63;;;;;;;;;;5075578;28;20453;-76
2023/04/24 06:37:21;;;;;;;2.17;2.07;;;;;;;;;;5075064;28;20480;-78
2023/04/24 06:39:52;;;;;;;2.70;2.50;;;;;;;;;;5072433;28;20452;-78
2023/04/24 06:42:21;;;;;;;2.70;2.50;;;;;;;;;;5072524;28;20437;-77
2023/04/24 06:44:50;;;;;;;2.60;2.40;;;;;;;;;;5071930;28;20994;-78
2023/04/24 06:47:19;;;;;;;2.50;2.20;;;;;;;;;;5074419;28;20971;-78
2023/04/24 06:49:50;;;;;;;2.67;2.50;;;;;;;;;;5072578;28;20484;-76
2023/04/24 06:52:18;;;;;;;2.27;2.17;;;;;;;;;;5073125;28;20532;-77
2023/04/24 06:54:46;;;;;;;2.50;2.37;;;;;;;;;;5072906;28;20829;-76
2023/04/24 06:57:15;;;;;;;2.70;2.30;;;;;;;;;;5072602;28;20532;-77
2023/04/24 06:59:46;;;;;;;4.67;2.30;;;;;;;;;;5075858;28;20971;-77
2023/04/24 07:02:15;;;;;;;3.03;2.27;;;;;;;;;;5075533;28;20968;-77
2023/04/24 07:04:47;;;;;;;3.00;2.70;;;;;;;;;;5075650;28;20956;-78
2023/04/24 07:07:16;;;;;;;2.60;2.40;;;;;;;;;;5075917;28;21029;-77
2023/04/24 07:09:46;;;;;;;2.27;2.17;;;;;;;;;;5075390;28;20479;-77
2023/04/24 07:12:22;;;;;;;2.73;2.63;;;;;;;;;;5076506;28;20478;-76
2023/04/24 07:14:54;;;;;;;2.60;2.50;;;;;;;;;;5075766;28;20941;-78
2023/04/24 07:17:21;;;;;;;2.37;2.17;;;;;;;;;;5074975;28;20991;-76
2023/04/24 07:19:54;;;;;;;2.30;2.00;;;;;;;;;;5074793;28;20998;-76
2023/04/24 07:22:32;;;;;;;3.13;2.37;;;;;;;;;;5078588;28;20472;-80
2023/04/24 07:25:00;;;;;;;2.73;2.50;;;;;;;;;;5076379;28;20472;-80
2023/04/24 07:27:28;;;;;;;3.23;2.23;;;;;;;;;;5086706;28;20525;-76
2023/04/24 07:29:59;;;;;;;2.40;2.30;;;;;;;;;;5085974;28;20480;-76
2023/04/24 07:32:29;;;;;;;2.40;2.20;;;;;;;;;;5073500;28;21075;-77
2023/04/24 07:35:01;;;;;;;2.23;2.13;;;;;;;;;;5074043;28;20448;-76
2023/04/24 07:37:30;;;;;;;2.73;2.23;;;;;;;;;;5075977;28;20476;-77
2023/04/24 07:39:57;;;;;;;3.33;1.87;;;;;;;;;;5074908;28;20425;-76
2023/04/24 07:42:31;;;;;;;1.70;1.50;;;;;;;;;;5073413;28;20429;-76
2023/04/24 07:45:01;;;;;;;1.90;1.80;;;;;;;;;;5075416;28;20449;-78
2023/04/24 07:47:31;;;;;;;2.90;2.00;;;;;;;;;;5074090;28;20460;-76
2023/04/24 07:50:00;;;;;;;1.70;1.60;;;;;;;;;;5073665;28;20504;-76
2023/04/24 07:52:30;;;;;;;1.87;1.77;;;;;;;;;;5074366;28;20464;-77
2023/04/24 07:55:00;;;;;;;6.53;1.97;;;;;;;;;;5072873;28;20445;-77
2023/04/24 07:57:28;;;;;;;2.13;1.90;;;;;;;;;;5073798;28;20461;-78
2023/04/24 07:59:56;;;;;;;2.10;2.00;;;;;;;;;;5073592;28;20552;-77
2023/04/24 08:02:26;;;;;;;1.90;1.80;;;;;;;;;;5073638;28;20459;-77
2023/04/24 08:04:54;;;;;;;1.90;1.80;;;;;;;;;;5073305;28;20449;-77
2023/04/24 08:07:23;;;;;;;1.97;1.87;;;;;;;;;;5073457;28;20476;-76
2023/04/24 08:09:51;;;;;;;1.77;1.67;;;;;;;;;;5072501;28;20851;-77
2023/04/24 08:12:19;;;;;;;2.60;2.40;;;;;;;;;;5073324;28;20460;-76
2023/04/24 08:14:46;;;;;;;2.40;1.73;;;;;;;;;;5073421;28;20463;-76
2023/04/24 08:17:14;;;;;;;1.97;1.87;;;;;;;;;;5073785;28;20495;-76
2023/04/24 08:19:47;;;;;;;2.90;1.70;;;;;;;;;;5074462;28;20440;-76
2023/04/24 08:22:15;;;;;;;2.93;2.13;;;;;;;;;;5074139;28;20476;-76
2023/04/24 08:24:48;;;;;;;1.80;1.70;;;;;;;;;;5074343;28;20812;-77
2023/04/24 08:27:16;;;;;;;3.33;2.43;;;;;;;;;;5074844;28;20480;-77
2023/04/24 08:29:46;;;;;;;2.07;1.90;;;;;;;;;;5073651;28;20601;-77
2023/04/24 08:32:23;;;;;;;1.80;1.70;;;;;;;;;;5073804;28;20774;-78
2023/04/24 08:34:56;;;;;;;3.07;2.00;;;;;;;;;;5073302;28;20580;-77
2023/04/24 08:37:27;;;;;;;3.90;1.70;;;;;;;;;;5083861;28;20539;-77
2023/04/24 08:39:56;;;;;;;1.70;1.60;;;;;;;;;;5081438;28;20440;-77
2023/04/24 08:42:24;;;;;;;2.10;2.00;;;;;;;;;;5073345;28;20952;-78
2023/04/24 08:44:51;;;;;;;4.40;1.80;;;;;;;;;;5075032;28;20511;-78
2023/04/24 08:47:19;;;;;;;2.40;2.20;;;;;;;;;;5081361;28;20526;-79
2023/04/24 08:49:46;;;;;;;3.33;2.20;;;;;;;;;;5084610;28;20488;-77
2023/04/24 08:52:14;;;;;;;1.97;1.77;;;;;;;;;;5085227;28;20435;-77
2023/04/24 08:54:43;;;;;;;2.23;2.13;;;;;;;;;;5082590;28;20455;-76
2023/04/24 08:57:13;;;;;;;1.70;1.60;;;;;;;;;;5082284;28;20526;-78
2023/04/24 08:59:44;;;;;;;1.83;1.73;;;;;;;;;;5074902;28;20455;-76
2023/04/24 09:02:12;;;;;;;2.70;1.87;;;;;;;;;;5073485;28;20917;-77
2023/04/24 09:04:40;;;;;;;1.90;1.80;;;;;;;;;;5073471;28;20488;-77
2023/04/24 09:07:08;;;;;;;2.97;1.87;;;;;;;;;;5073734;28;20492;-76
2023/04/24 09:09:36;;;;;;;2.73;2.53;;;;;;;;;;5073400;28;20484;-76
2023/04/24 09:12:04;;;;;;;2.50;2.30;;;;;;;;;;5072610;28;20508;-77
2023/04/24 09:14:33;;;;;;;1.90;1.80;;;;;;;;;;5072631;28;20951;-77
2023/04/24 09:17:01;;;;;;;1.90;1.80;;;;;;;;;;5072834;28;20504;-78
2023/04/24 09:19:28;;;;;;;2.00;1.90;;;;;;;;;;5072603;28;20861;-78
2023/04/24 09:21:59;;;;;;;1.93;1.83;;;;;;;;;;5072055;28;20496;-76
2023/04/24 09:24:26;;;;;;;1.97;1.87;;;;;;;;;;5071877;28;20480;-76
2023/04/24 09:26:58;;;;;;;2.30;2.10;;;;;;;;;;5073173;28;20967;-75
2023/04/24 09:29:26;;;;;;;2.10;2.00;;;;;;;;;;5076679;28;20990;-76
2023/04/24 09:31:55;;;;;;;2.10;1.93;;;;;;;;;;5076228;28;20437;-78
2023/04/24 09:34:26;;;;;;;1.90;1.80;;;;;;;;;;5081413;28;20447;-77
2023/04/24 09:36:53;;;;;;;3.13;1.87;;;;;;;;;;5079992;28;20527;-76
2023/04/24 09:39:21;;;;;;;2.53;2.40;;;;;;;;;;5082414;28;20429;-76
2023/04/24 09:41:51;;;;;;;2.00;1.90;;;;;;;;;;5088151;28;20452;-76
2023/04/24 09:44:19;;;;;;;1.83;1.73;;;;;;;;;;5073211;28;20928;-76
2023/04/24 09:46:50;;;;;;;2.30;2.10;;;;;;;;;;5089318;28;20444;-76
2023/04/24 09:49:24;;;;;;;2.63;2.43;;;;;;;;;;5079662;28;20476;-77
2023/04/24 09:51:52;;;;;;;2.20;2.10;;;;;;;;;;5090785;28;20416;-79
2023/04/24 09:54:31;;;;;;;2.63;2.43;;;;;;;;;;5081792;28;20448;-80
2023/04/24 09:56:59;;;;;;;2.70;2.47;;;;;;;;;;5076703;28;20457;-77
2023/04/24 09:59:31;;;;;;;1.90;1.80;;;;;;;;;;5079953;28;20962;-77
2023/04/24 10:01:58;;;;;;;1.97;1.87;;;;;;;;;;5078119;28;20437;-77
2023/04/24 10:04:32;;;;;;;1.97;1.87;;;;;;;;;;5081669;28;20574;-76
2023/04/24 10:07:01;;;;;;;1.80;1.70;;;;;;;;;;5081382;28;20468;-77
2023/04/24 10:09:29;;;;;;;1.80;1.60;;;;;;;;;;5085524;28;20482;-77
2023/04/24 10:11:58;;;;;;;1.40;1.40;;;;;;;;;;5090035;28;20532;-77
2023/04/24 10:14:31;;;;;;;1.77;1.67;;;;;;;;;;5092170;28;20535;-79
2023/04/24 10:17:00;;;;;;;1.40;1.30;;;;;;;;;;5095651;28;20555;-80
2023/04/24 10:19:36;;;;;;;2.40;1.77;;;;;;;;;;5081829;28;20484;-77
2023/04/24 10:22:04;;;;;;;1.63;1.53;;;;;;;;;;5096300;28;20959;-79
2023/04/24 10:24:37;;;;;;;2.00;1.90;;;;;;;;;;5091372;28;20464;-75
2023/04/24 10:27:06;;;;;;;1.60;1.50;;;;;;;;;;5090991;28;20463;-77
2023/04/24 10:29:37;;;;;;;1.80;1.70;;;;;;;;;;5093231;28;20501;-78
2023/04/24 10:32:05;;;;;;;2.00;1.90;;;;;;;;;;5084608;28;20476;-79
2023/04/24 10:34:35;;;;;;;4.73;1.63;;;;;;;;;;5080033;28;20455;-75
2023/04/24 10:37:04;;;;;;;1.57;1.47;;;;;;;;;;5082467;28;20464;-79
2023/04/24 10:39:33;;;;;;;1.50;1.50;;;;;;;;;;5084789;28;20444;-78
2023/04/24 10:42:01;;;;;;;2.20;2.00;;;;;;;;;;5076694;28;20456;-78
2023/04/24 10:44:38;;;;;;;2.07;1.90;;;;;;;;;;5094941;28;20536;-78
2023/04/24 10:47:10;;;;;;;2.17;1.80;;;;;;;;;;5095393;28;20451;-77
2023/04/24 10:49:44;;;;;;;1.70;1.60;;;;;;;;;;5079135;28;20926;-77
2023/04/24 10:52:16;;;;;;;1.80;1.70;;;;;;;;;;5095288;28;20447;-75
2023/04/24 10:54:46;;;;;;;1.53;1.50;;;;;;;;;;5093416;28;20451;-79
2023/04/24 10:57:33;;;;;;;2.47;2.27;;;;;;;;;;5087781;28;20475;-76
2023/04/24 11:00:17;;;;;;;1.23;1.23;;;;;;;;;;5088030;28;20449;-77
2023/04/24 11:02:50;;;;;;;2.77;1.63;;;;;;;;;;5080807;28;20525;-79
2023/04/24 11:05:20;;;;;;;6.17;1.70;;;;;;;;;;5086058;28;20555;-78
2023/04/24 11:08:06;;;;;;;1.80;1.60;;;;;;;;;;5086154;28;20558;-77
2023/04/24 11:10:34;;;;;;;1.90;1.80;;;;;;;;;;5091227;28;20474;-79
2023/04/24 11:13:05;;;;;;;2.90;1.73;;;;;;;;;;5096947;28;20497;-76
2023/04/24 11:15:34;;;;;;;2.33;1.83;;;;;;;;;;5093743;28;20547;-77
2023/04/24 11:18:02;;;;;;;2.00;1.90;;;;;;;;;;5104385;28;20452;-78
2023/04/24 11:20:36;;;;;;;1.70;1.60;;;;;;;;;;5107083;28;20463;-79
2023/04/24 11:23:06;;;;;;;1.73;1.67;;;;;;;;;;5092792;28;20531;-76
2023/04/24 11:25:34;;;;;;;1.70;1.60;;;;;;;;;;5090491;28;20516;-77
2023/04/24 11:28:05;;;;;;;1.87;1.77;;;;;;;;;;5084140;28;20468;-79
2023/04/24 11:30:35;;;;;;;2.73;1.67;;;;;;;;;;5088819;28;20532;-79
2023/04/24 11:33:04;;;;;;;1.50;1.47;;;;;;;;;;5090121;28;20476;-76
2023/04/24 11:35:34;;;;;;;1.63;1.53;;;;;;;;;;5086985;28;20796;-76
2023/04/24 11:38:03;;;;;;;2.33;2.10;;;;;;;;;;5085600;28;20488;-77
2023/04/24 11:40:30;;;;;;;1.53;1.50;;;;;;;;;;5088220;28;20441;-77
2023/04/24 11:42:59;;;;;;;2.63;2.40;;;;;;;;;;5090561;28;20472;-76
2023/04/24 11:45:33;;;;;;;2.30;2.20;;;;;;;;;;5088909;28;20531;-79
2023/04/24 11:48:03;;;;;;;2.00;1.90;;;;;;;;;;5088678;28;20977;-78
2023/04/24 11:50:31;;;;;;;1.70;1.60;;;;;;;;;;5084825;28;20511;-80
2023/04/24 11:53:02;;;;;;;3.23;1.67;;;;;;;;;;5086733;28;20928;-77
2023/04/24 11:55:31;;;;;;;1.87;1.77;;;;;;;;;;5087275;28;20555;-80
2023/04/24 11:58:00;;;;;;;2.53;2.00;;;;;;;;;;5086157;28;20472;-78
2023/04/24 12:00:29;;;;;;;2.10;2.00;;;;;;;;;;5086075;28;20532;-80
2023/04/24 12:03:06;;;;;;;1.70;1.70;;;;;;;;;;5085516;28;20467;-78
2023/04/24 12:05:34;;;;;;;1.93;1.83;;;;;;;;;;5085315;28;20950;-79
2023/04/24 12:08:02;;;;;;;2.00;1.90;;;;;;;;;;5084851;28;20499;-78
2023/04/24 12:10:32;;;;;;;1.83;1.83;;;;;;;;;;5081274;28;20476;-78
2023/04/24 12:13:00;;;;;;;1.70;1.70;;;;;;;;;;5083475;28;20446;-77
2023/04/24 12:15:29;;;;;;;1.97;1.73;;;;;;;;;;5083432;28;20452;-78
2023/04/24 12:17:57;;;;;;;1.90;1.80;;;;;;;;;;5086970;28;20455;-78
2023/04/24 12:20:29;;;;;;;1.50;1.37;;;;;;;;;;5100525;28;20436;-77
2023/04/24 12:22:57;;;;;;;1.83;1.73;;;;;;;;;;5102128;28;20452;-78
2023/04/24 12:25:25;;;;;;;4.67;1.70;;;;;;;;;;5104738;28;21091;-76
2023/04/24 12:28:11;;;;;;;2.03;1.80;;;;;;;;;;5098647;28;20480;-78
2023/04/24 12:30:44;;;;;;;2.17;1.63;;;;;;;;;;5079809;28;20479;-75
2023/04/24 12:33:12;;;;;;;2.30;2.20;;;;;;;;;;5073075;28;20480;-79
2023/04/24 12:35:41;;;;;;;1.57;1.47;;;;;;;;;;5073711;28;20543;-75
2023/04/24 12:38:14;;;;;;;2.00;1.90;;;;;;;;;;5073004;28;20481;-78
2023/04/24 12:40:43;;;;;;;2.03;1.93;;;;;;;;;;5073879;28;20433;-76
2023/04/24 12:43:20;;;;;;;1.50;1.50;;;;;;;;;;5073387;28;20452;-77
2023/04/24 12:45:52;;;;;;;1.93;1.83;;;;;;;;;;5073602;28;20444;-76
2023/04/24 12:48:20;;;;;;;2.10;2.00;;;;;;;;;;5073692;28;20445;-78
2023/04/24 12:50:49;;;;;;;2.00;1.90;;;;;;;;;;5073779;28;20476;-77
2023/04/24 12:53:17;;;;;;;4.40;2.03;;;;;;;;;;5073128;28;20456;-78
2023/04/24 12:55:44;;;;;;;1.70;1.70;;;;;;;;;;5072592;28;20816;-78
2023/04/24 12:58:12;;;;;;;2.10;2.00;;;;;;;;;;5073141;28;20461;-77
2023/04/24 13:00:45;;;;;;;2.30;2.20;;;;;;;;;;5072389;28;20944;-76
2023/04/24 13:03:15;;;;;;;1.97;1.87;;;;;;;;;;5072742;28;20861;-77
2023/04/24 13:05:44;;;;;;;2.40;2.30;;;;;;;;;;5073003;28;20774;-77
2023/04/24 13:08:14;;;;;;;2.40;2.20;;;;;;;;;;5073053;28;20469;-75
2023/04/24 13:10:42;;;;;;;1.90;1.80;;;;;;;;;;5072937;28;20477;-76
2023/04/24 13:13:12;;;;;;;2.10;2.00;;;;;;;;;;5072603;28;20433;-77
2023/04/24 13:15:45;;;;;;;1.80;1.70;;;;;;;;;;5073016;28;20802;-77
2023/04/24 13:18:16;;;;;;;2.13;2.03;;;;;;;;;;5072866;28;20468;-77
2023/04/24 13:20:44;;;;;;;2.33;2.23;;;;;;;;;;5072585;28;20479;-79
2023/04/24 13:23:17;;;;;;;2.43;2.33;;;;;;;;;;5072434;28;20483;-76
2023/04/24 13:25:57;;;;;;;2.47;2.37;;;;;;;;;;5073138;28;20468;-77
2023/04/24 13:28:31;;;;;;;2.23;2.13;;;;;;;;;;5073258;28;20476;-77
2023/04/24 13:31:01;;;;;;;2.40;2.30;;;;;;;;;;5074220;28;20500;-76
2023/04/24 13:33:28;;;;;;;2.30;2.10;;;;;;;;;;5072591;28;20477;-78
2023/04/24 13:36:02;;;;;;;2.30;2.10;;;;;;;;;;5073942;28;20456;-79
2023/04/24 13:38:32;;;;;;;2.23;2.13;;;;;;;;;;5072087;28;20477;-79
2023/04/24 13:41:02;;;;;;;2.33;2.23;;;;;;;;;;5072097;28;20524;-77
2023/04/24 13:43:32;;;;;;;2.13;2.03;;;;;;;;;;5072643;28;20448;-78
2023/04/24 13:46:02;;;;;;;2.60;2.50;;;;;;;;;;5072966;28;20476;-79
2023/04/24 13:48:30;;;;;;;2.90;2.70;;;;;;;;;;5072421;28;20480;-78
2023/04/24 13:50:58;;;;;;;2.37;2.17;;;;;;;;;;5072749;28;20476;-78
2023/04/24 13:53:25;;;;;;;2.30;2.20;;;;;;;;;;5071777;28;20453;-77
2023/04/24 13:55:53;;;;;;;2.47;2.27;;;;;;;;;;5072643;28;20476;-77
2023/04/24 13:58:20;;;;;;;2.23;2.00;;;;;;;;;;5072110;28;20503;-77
2023/04/24 14:00:51;;;;;;;2.30;2.20;;;;;;;;;;5072293;28;20457;-77
2023/04/24 14:03:19;;;;;;;2.73;2.53;;;;;;;;;;5072569;28;20805;-77
2023/04/24 14:05:47;;;;;;;2.60;2.40;;;;;;;;;;5072355;28;20455;-76
2023/04/24 14:08:14;;;;;;;2.00;1.90;;;;;;;;;;5074090;28;20500;-76
2023/04/24 14:10:44;;;;;;;1.90;1.80;;;;;;;;;;5076596;28;20559;-76
2023/04/24 14:13:12;;;;;;;2.10;1.90;;;;;;;;;;5078811;28;20453;-77
2023/04/24 14:15:39;;;;;;;2.07;1.97;;;;;;;;;;5079247;28;20455;-76
2023/04/24 14:18:07;;;;;;;2.50;2.40;;;;;;;;;;5080388;28;20477;-76
2023/04/24 14:20:35;;;;;;;2.90;2.80;;;;;;;;;;5091269;28;20956;-78
2023/04/24 14:23:05;;;;;;;2.37;2.27;;;;;;;;;;5096275;28;20444;-76
2023/04/24 14:25:32;;;;;;;4.30;2.30;;;;;;;;;;5095832;28;20441;-76
2023/04/24 14:28:00;;;;;;;2.40;2.20;;;;;;;;;;5098195;28;20521;-74
2023/04/24 14:30:28;;;;;;;2.23;2.13;;;;;;;;;;5097819;28;20499;-75
2023/04/24 14:32:59;;;;;;;2.60;2.50;;;;;;;;;;5097134;28;20472;-75
2023/04/24 14:35:28;;;;;;;1.70;1.60;;;;;;;;;;5092312;28;20420;-76
2023/04/24 14:37:57;;;;;;;2.10;2.00;;;;;;;;;;5088971;28;20492;-76
2023/04/24 14:40:32;;;;;;;1.50;1.47;;;;;;;;;;5095003;28;20441;-76
2023/04/24 14:43:03;;;;;;;2.00;1.90;;;;;;;;;;5088349;28;20428;-79
2023/04/24 14:45:33;;;;;;;2.17;2.07;;;;;;;;;;5085190;28;20472;-76
2023/04/24 14:48:01;;;;;;;2.03;1.93;;;;;;;;;;5083877;28;20481;-76
2023/04/24 14:50:28;;;;;;;2.03;1.93;;;;;;;;;;5084457;28;20464;-75
2023/04/24 14:53:02;;;;;;;1.63;1.53;;;;;;;;;;5078972;28;20448;-78
2023/04/24 14:55:29;;;;;;;2.20;2.10;;;;;;;;;;5080703;28;20456;-79
2023/04/24 14:58:01;;;;;;;2.03;1.93;;;;;;;;;;5085304;28;20468;-77
2023/04/24 15:00:35;;;;;;;1.73;1.63;;;;;;;;;;5086882;28;20999;-77
2023/04/24 15:03:03;;;;;;;2.20;2.00;;;;;;;;;;5077560;28;20480;-76
2023/04/24 15:05:33;;;;;;;2.47;2.27;;;;;;;;;;5075349;28;20514;-76